sensor_id;sensor_type;location;lat;lon;timestamp;P1;durP1;ratioP1;P2;durP2;ratioP2
20511;SDS011;10414;52.074;5.126;2022-09-12T00:02:23;20.35;;;14.68;;
20511;SDS011;10414;52.074;5.126;2022-09-12T00:04:50;24.48;;;15.63;;
20511;SDS011;10414;52.074;5.126;2022-09-12T00:07:17;28.20;;;18.75;;
20511;SDS011;10414;52.074;5.126;2022-09-12T00:09:44;24.30;;;18.13;;
20511;SDS011;10414;52.074;5.126;2022-09-12T00:12:14;20.08;;;14.95;;
20511;SDS011;10414;52.074;5.126;2022-09-12T00:14:41;24.33;;;17.25;;
20511;SDS011;10414;52.074;5.126;2022-09-12T00:17:09;29.17;;;20.58;;
20511;SDS011;10414;52.074;5.126;2022-09-12T00:19:36;26.98;;;18.88;;
20511;SDS011;10414;52.074;5.126;2022-09-12T00:22:03;22.05;;;15.20;;
20511;SDS011;10414;52.074;5.126;2022-09-12T00:24:30;23.77;;;16.30;;
20511;SDS011;10414;52.074;5.126;2022-09-12T00:26:58;26.85;;;18.15;;
20511;SDS011;10414;52.074;5.126;2022-09-12T00:29:25;28.60;;;18.90;;
20511;SDS011;10414;52.074;5.126;2022-09-12T00:31:52;20.83;;;14.98;;
20511;SDS011;10414;52.074;5.126;2022-09-12T00:34:20;23.05;;;16.13;;
20511;SDS011;10414;52.074;5.126;2022-09-12T00:36:47;23.00;;;15.75;;
20511;SDS011;10414;52.074;5.126;2022-09-12T00:39:14;26.42;;;18.05;;
20511;SDS011;10414;52.074;5.126;2022-09-12T00:41:42;27.08;;;18.40;;
20511;SDS011;10414;52.074;5.126;2022-09-12T00:47:16;23.50;;;16.90;;
20511;SDS011;10414;52.074;5.126;2022-09-12T00:49:50;24.92;;;17.25;;
20511;SDS011;10414;52.074;5.126;2022-09-12T00:52:21;26.13;;;17.95;;
20511;SDS011;10414;52.074;5.126;2022-09-12T00:54:53;32.97;;;20.90;;
20511;SDS011;10414;52.074;5.126;2022-09-12T00:59:55;22.40;;;15.43;;
20511;SDS011;10414;52.074;5.126;2022-09-12T01:02:25;29.92;;;19.70;;
20511;SDS011;10414;52.074;5.126;2022-09-12T01:04:54;28.67;;;19.90;;
20511;SDS011;10414;52.074;5.126;2022-09-12T01:07:22;25.98;;;18.48;;
20511;SDS011;10414;52.074;5.126;2022-09-12T01:09:49;27.58;;;19.80;;
20511;SDS011;10414;52.074;5.126;2022-09-12T01:12:16;24.48;;;17.48;;
20511;SDS011;10414;52.074;5.126;2022-09-12T01:14:44;29.65;;;19.05;;
20511;SDS011;10414;52.074;5.126;2022-09-12T01:17:11;29.17;;;18.50;;
20511;SDS011;10414;52.074;5.126;2022-09-12T01:19:55;22.20;;;15.38;;
20511;SDS011;10414;52.074;5.126;2022-09-12T01:23:02;31.77;;;21.98;;
20511;SDS011;10414;52.074;5.126;2022-09-12T01:25:47;29.75;;;17.50;;
20511;SDS011;10414;52.074;5.126;2022-09-12T01:28:43;31.33;;;20.77;;
20511;SDS011;10414;52.074;5.126;2022-09-12T01:31:24;26.38;;;19.02;;
20511;SDS011;10414;52.074;5.126;2022-09-12T01:33:58;29.52;;;20.33;;
20511;SDS011;10414;52.074;5.126;2022-09-12T01:36:37;29.25;;;20.13;;
20511;SDS011;10414;52.074;5.126;2022-09-12T01:39:13;32.08;;;20.35;;
20511;SDS011;10414;52.074;5.126;2022-09-12T01:41:47;31.50;;;20.73;;
20511;SDS011;10414;52.074;5.126;2022-09-12T01:44:20;31.65;;;20.92;;
20511;SDS011;10414;52.074;5.126;2022-09-12T01:46:53;30.40;;;20.08;;
20511;SDS011;10414;52.074;5.126;2022-09-12T01:49:23;26.35;;;18.05;;
20511;SDS011;10414;52.074;5.126;2022-09-12T01:51:56;26.58;;;17.95;;
20511;SDS011;10414;52.074;5.126;2022-09-12T01:54:30;27.92;;;18.38;;
20511;SDS011;10414;52.074;5.126;2022-09-12T01:57:10;29.10;;;19.73;;
20511;SDS011;10414;52.074;5.126;2022-09-12T01:59:42;26.52;;;17.73;;
20511;SDS011;10414;52.074;5.126;2022-09-12T02:02:14;28.73;;;19.95;;
20511;SDS011;10414;52.074;5.126;2022-09-12T02:04:48;27.73;;;18.05;;
20511;SDS011;10414;52.074;5.126;2022-09-12T02:07:21;26.75;;;19.05;;
20511;SDS011;10414;52.074;5.126;2022-09-12T02:09:56;28.05;;;19.05;;
20511;SDS011;10414;52.074;5.126;2022-09-12T02:12:28;26.92;;;18.20;;
20511;SDS011;10414;52.074;5.126;2022-09-12T02:15:03;26.63;;;18.23;;
20511;SDS011;10414;52.074;5.126;2022-09-12T02:17:35;27.05;;;18.52;;
20511;SDS011;10414;52.074;5.126;2022-09-12T02:20:08;30.50;;;18.80;;
20511;SDS011;10414;52.074;5.126;2022-09-12T02:22:40;29.08;;;18.38;;
20511;SDS011;10414;52.074;5.126;2022-09-12T02:25:09;28.25;;;17.90;;
20511;SDS011;10414;52.074;5.126;2022-09-12T02:27:40;30.40;;;18.65;;
20511;SDS011;10414;52.074;5.126;2022-09-12T02:30:10;30.90;;;19.55;;
20511;SDS011;10414;52.074;5.126;2022-09-12T02:32:42;34.53;;;21.88;;
20511;SDS011;10414;52.074;5.126;2022-09-12T02:35:16;29.75;;;18.60;;
20511;SDS011;10414;52.074;5.126;2022-09-12T02:37:52;28.90;;;18.92;;
20511;SDS011;10414;52.074;5.126;2022-09-12T02:40:25;32.55;;;20.55;;
20511;SDS011;10414;52.074;5.126;2022-09-12T02:42:52;31.40;;;19.30;;
20511;SDS011;10414;52.074;5.126;2022-09-12T02:45:19;28.83;;;18.60;;
20511;SDS011;10414;52.074;5.126;2022-09-12T02:47:49;33.63;;;21.55;;
20511;SDS011;10414;52.074;5.126;2022-09-12T02:50:20;32.80;;;21.33;;
20511;SDS011;10414;52.074;5.126;2022-09-12T02:52:47;35.33;;;20.55;;
20511;SDS011;10414;52.074;5.126;2022-09-12T02:55:14;33.28;;;21.77;;
20511;SDS011;10414;52.074;5.126;2022-09-12T02:57:41;29.65;;;18.60;;
20511;SDS011;10414;52.074;5.126;2022-09-12T03:00:08;33.58;;;20.63;;
20511;SDS011;10414;52.074;5.126;2022-09-12T03:02:41;32.63;;;19.88;;
20511;SDS011;10414;52.074;5.126;2022-09-12T03:05:26;33.30;;;20.23;;
20511;SDS011;10414;52.074;5.126;2022-09-12T03:11:08;28.83;;;16.60;;
20511;SDS011;10414;52.074;5.126;2022-09-12T03:13:48;30.20;;;18.55;;
20511;SDS011;10414;52.074;5.126;2022-09-12T03:16:27;29.17;;;17.77;;
20511;SDS011;10414;52.074;5.126;2022-09-12T03:19:04;30.58;;;19.75;;
20511;SDS011;10414;52.074;5.126;2022-09-12T03:21:40;33.03;;;19.55;;
20511;SDS011;10414;52.074;5.126;2022-09-12T03:24:19;28.30;;;18.25;;
20511;SDS011;10414;52.074;5.126;2022-09-12T03:26:52;32.83;;;20.52;;
20511;SDS011;10414;52.074;5.126;2022-09-12T03:29:24;35.85;;;20.92;;
20511;SDS011;10414;52.074;5.126;2022-09-12T03:31:53;30.98;;;20.38;;
20511;SDS011;10414;52.074;5.126;2022-09-12T03:34:23;36.05;;;20.50;;
20511;SDS011;10414;52.074;5.126;2022-09-12T03:36:52;30.98;;;19.17;;
20511;SDS011;10414;52.074;5.126;2022-09-12T03:39:20;28.83;;;18.98;;
20511;SDS011;10414;52.074;5.126;2022-09-12T03:41:48;32.25;;;19.80;;
20511;SDS011;10414;52.074;5.126;2022-09-12T03:44:15;33.78;;;19.60;;
20511;SDS011;10414;52.074;5.126;2022-09-12T03:46:42;31.65;;;20.85;;
20511;SDS011;10414;52.074;5.126;2022-09-12T03:49:10;28.83;;;18.90;;
20511;SDS011;10414;52.074;5.126;2022-09-12T03:51:38;30.70;;;18.60;;
20511;SDS011;10414;52.074;5.126;2022-09-12T03:54:07;30.88;;;19.70;;
20511;SDS011;10414;52.074;5.126;2022-09-12T03:56:33;31.55;;;19.27;;
20511;SDS011;10414;52.074;5.126;2022-09-12T03:59:03;26.90;;;17.05;;
20511;SDS011;10414;52.074;5.126;2022-09-12T04:01:30;30.58;;;19.02;;
20511;SDS011;10414;52.074;5.126;2022-09-12T04:03:57;29.80;;;18.88;;
20511;SDS011;10414;52.074;5.126;2022-09-12T04:06:24;28.45;;;17.80;;
20511;SDS011;10414;52.074;5.126;2022-09-12T04:08:53;28.50;;;18.20;;
20511;SDS011;10414;52.074;5.126;2022-09-12T04:11:21;29.48;;;19.25;;
20511;SDS011;10414;52.074;5.126;2022-09-12T04:13:49;28.63;;;18.85;;
20511;SDS011;10414;52.074;5.126;2022-09-12T04:16:16;24.67;;;16.98;;
20511;SDS011;10414;52.074;5.126;2022-09-12T04:18:46;27.63;;;17.67;;
20511;SDS011;10414;52.074;5.126;2022-09-12T04:21:14;30.67;;;19.75;;
20511;SDS011;10414;52.074;5.126;2022-09-12T04:23:42;27.15;;;17.25;;
20511;SDS011;10414;52.074;5.126;2022-09-12T04:26:11;32.50;;;20.52;;
20511;SDS011;10414;52.074;5.126;2022-09-12T04:28:39;32.42;;;20.45;;
20511;SDS011;10414;52.074;5.126;2022-09-12T04:31:07;35.45;;;20.98;;
20511;SDS011;10414;52.074;5.126;2022-09-12T04:33:38;28.15;;;17.42;;
20511;SDS011;10414;52.074;5.126;2022-09-12T04:36:06;28.95;;;18.95;;
20511;SDS011;10414;52.074;5.126;2022-09-12T04:38:35;35.75;;;21.92;;
20511;SDS011;10414;52.074;5.126;2022-09-12T04:41:08;33.17;;;19.85;;
20511;SDS011;10414;52.074;5.126;2022-09-12T04:43:38;33.97;;;19.88;;
20511;SDS011;10414;52.074;5.126;2022-09-12T04:46:05;32.63;;;19.33;;
20511;SDS011;10414;52.074;5.126;2022-09-12T04:48:32;34.10;;;20.83;;
20511;SDS011;10414;52.074;5.126;2022-09-12T04:51:09;33.65;;;20.70;;
20511;SDS011;10414;52.074;5.126;2022-09-12T04:53:38;40.00;;;22.55;;
20511;SDS011;10414;52.074;5.126;2022-09-12T04:56:06;39.72;;;20.65;;
20511;SDS011;10414;52.074;5.126;2022-09-12T04:58:36;35.08;;;20.45;;
20511;SDS011;10414;52.074;5.126;2022-09-12T05:01:04;34.28;;;19.65;;
20511;SDS011;10414;52.074;5.126;2022-09-12T05:03:32;31.40;;;17.92;;
20511;SDS011;10414;52.074;5.126;2022-09-12T05:06:00;31.60;;;18.25;;
20511;SDS011;10414;52.074;5.126;2022-09-12T05:08:27;28.40;;;17.20;;
20511;SDS011;10414;52.074;5.126;2022-09-12T05:10:54;33.88;;;20.30;;
20511;SDS011;10414;52.074;5.126;2022-09-12T05:13:22;26.88;;;16.67;;
20511;SDS011;10414;52.074;5.126;2022-09-12T05:15:54;29.38;;;18.02;;
20511;SDS011;10414;52.074;5.126;2022-09-12T05:18:22;28.33;;;16.90;;
20511;SDS011;10414;52.074;5.126;2022-09-12T05:20:50;24.27;;;15.10;;
20511;SDS011;10414;52.074;5.126;2022-09-12T05:23:17;27.50;;;16.50;;
20511;SDS011;10414;52.074;5.126;2022-09-12T05:25:48;25.45;;;17.00;;
20511;SDS011;10414;52.074;5.126;2022-09-12T05:28:16;26.63;;;16.75;;
20511;SDS011;10414;52.074;5.126;2022-09-12T05:30:44;24.73;;;15.15;;
20511;SDS011;10414;52.074;5.126;2022-09-12T05:33:12;25.23;;;17.08;;
20511;SDS011;10414;52.074;5.126;2022-09-12T05:35:40;28.75;;;17.35;;
20511;SDS011;10414;52.074;5.126;2022-09-12T05:38:07;27.38;;;16.98;;
20511;SDS011;10414;52.074;5.126;2022-09-12T05:40:34;31.80;;;18.63;;
20511;SDS011;10414;52.074;5.126;2022-09-12T05:43:01;32.50;;;19.58;;
20511;SDS011;10414;52.074;5.126;2022-09-12T05:45:31;26.10;;;17.25;;
20511;SDS011;10414;52.074;5.126;2022-09-12T05:47:58;29.05;;;18.15;;
20511;SDS011;10414;52.074;5.126;2022-09-12T05:50:28;28.35;;;17.52;;
20511;SDS011;10414;52.074;5.126;2022-09-12T05:52:55;29.13;;;17.15;;
20511;SDS011;10414;52.074;5.126;2022-09-12T05:55:22;27.10;;;17.20;;
20511;SDS011;10414;52.074;5.126;2022-09-12T05:57:52;27.50;;;17.02;;
20511;SDS011;10414;52.074;5.126;2022-09-12T06:00:19;23.65;;;14.43;;
20511;SDS011;10414;52.074;5.126;2022-09-12T06:02:50;31.58;;;20.02;;
20511;SDS011;10414;52.074;5.126;2022-09-12T06:05:17;29.70;;;17.67;;
20511;SDS011;10414;52.074;5.126;2022-09-12T06:07:46;27.20;;;17.77;;
20511;SDS011;10414;52.074;5.126;2022-09-12T06:10:13;29.30;;;18.23;;
20511;SDS011;10414;52.074;5.126;2022-09-12T06:12:41;31.38;;;19.02;;
20511;SDS011;10414;52.074;5.126;2022-09-12T06:15:09;28.60;;;18.70;;
20511;SDS011;10414;52.074;5.126;2022-09-12T06:17:36;27.52;;;16.08;;
20511;SDS011;10414;52.074;5.126;2022-09-12T06:20:03;29.80;;;18.02;;
20511;SDS011;10414;52.074;5.126;2022-09-12T06:22:30;27.55;;;16.83;;
20511;SDS011;10414;52.074;5.126;2022-09-12T06:24:58;24.38;;;15.30;;
20511;SDS011;10414;52.074;5.126;2022-09-12T06:27:25;21.08;;;12.73;;
20511;SDS011;10414;52.074;5.126;2022-09-12T06:29:52;25.13;;;16.33;;
20511;SDS011;10414;52.074;5.126;2022-09-12T06:32:19;22.67;;;15.38;;
20511;SDS011;10414;52.074;5.126;2022-09-12T06:34:46;26.05;;;17.15;;
20511;SDS011;10414;52.074;5.126;2022-09-12T06:37:13;29.17;;;18.38;;
20511;SDS011;10414;52.074;5.126;2022-09-12T06:39:40;23.52;;;15.75;;
20511;SDS011;10414;52.074;5.126;2022-09-12T06:42:08;27.90;;;18.52;;
20511;SDS011;10414;52.074;5.126;2022-09-12T06:44:36;23.07;;;16.00;;
20511;SDS011;10414;52.074;5.126;2022-09-12T06:47:03;22.00;;;15.02;;
20511;SDS011;10414;52.074;5.126;2022-09-12T06:49:31;25.33;;;18.00;;
20511;SDS011;10414;52.074;5.126;2022-09-12T06:51:58;26.50;;;17.73;;
20511;SDS011;10414;52.074;5.126;2022-09-12T06:54:26;23.35;;;16.23;;
20511;SDS011;10414;52.074;5.126;2022-09-12T06:56:53;31.55;;;19.83;;
20511;SDS011;10414;52.074;5.126;2022-09-12T06:59:22;24.35;;;16.75;;
20511;SDS011;10414;52.074;5.126;2022-09-12T07:01:52;26.98;;;19.40;;
20511;SDS011;10414;52.074;5.126;2022-09-12T07:04:20;25.95;;;18.35;;
20511;SDS011;10414;52.074;5.126;2022-09-12T07:06:47;28.08;;;18.88;;
20511;SDS011;10414;52.074;5.126;2022-09-12T07:09:14;28.08;;;18.25;;
20511;SDS011;10414;52.074;5.126;2022-09-12T07:11:42;23.10;;;17.70;;
20511;SDS011;10414;52.074;5.126;2022-09-12T07:14:10;26.88;;;19.40;;
20511;SDS011;10414;52.074;5.126;2022-09-12T07:16:40;23.58;;;17.27;;
20511;SDS011;10414;52.074;5.126;2022-09-12T07:19:07;29.02;;;19.13;;
20511;SDS011;10414;52.074;5.126;2022-09-12T07:21:34;25.55;;;17.83;;
20511;SDS011;10414;52.074;5.126;2022-09-12T07:24:03;26.73;;;18.67;;
20511;SDS011;10414;52.074;5.126;2022-09-12T07:26:33;24.83;;;17.33;;
20511;SDS011;10414;52.074;5.126;2022-09-12T07:29:00;24.45;;;16.23;;
20511;SDS011;10414;52.074;5.126;2022-09-12T07:31:27;24.30;;;16.65;;
20511;SDS011;10414;52.074;5.126;2022-09-12T07:33:56;27.58;;;19.85;;
20511;SDS011;10414;52.074;5.126;2022-09-12T07:36:23;26.30;;;17.92;;
20511;SDS011;10414;52.074;5.126;2022-09-12T07:38:54;21.55;;;15.25;;
20511;SDS011;10414;52.074;5.126;2022-09-12T07:41:22;23.95;;;16.73;;
20511;SDS011;10414;52.074;5.126;2022-09-12T07:43:53;26.25;;;16.83;;
20511;SDS011;10414;52.074;5.126;2022-09-12T07:46:22;22.25;;;17.33;;
20511;SDS011;10414;52.074;5.126;2022-09-12T07:48:50;20.67;;;15.57;;
20511;SDS011;10414;52.074;5.126;2022-09-12T07:51:20;19.92;;;15.55;;
20511;SDS011;10414;52.074;5.126;2022-09-12T07:53:48;20.52;;;14.60;;
20511;SDS011;10414;52.074;5.126;2022-09-12T07:56:16;23.60;;;16.70;;
20511;SDS011;10414;52.074;5.126;2022-09-12T07:58:44;23.75;;;18.45;;
20511;SDS011;10414;52.074;5.126;2022-09-12T08:01:12;16.55;;;13.13;;
20511;SDS011;10414;52.074;5.126;2022-09-12T08:03:40;18.38;;;14.43;;
20511;SDS011;10414;52.074;5.126;2022-09-12T08:06:09;17.45;;;12.10;;
20511;SDS011;10414;52.074;5.126;2022-09-12T08:08:39;21.00;;;16.58;;
20511;SDS011;10414;52.074;5.126;2022-09-12T08:11:08;19.77;;;15.63;;
20511;SDS011;10414;52.074;5.126;2022-09-12T08:13:36;19.00;;;15.55;;
20511;SDS011;10414;52.074;5.126;2022-09-12T08:16:05;18.58;;;15.27;;
20511;SDS011;10414;52.074;5.126;2022-09-12T08:18:33;20.23;;;14.98;;
20511;SDS011;10414;52.074;5.126;2022-09-12T08:21:01;20.23;;;13.98;;
20511;SDS011;10414;52.074;5.126;2022-09-12T08:23:30;18.30;;;14.75;;
20511;SDS011;10414;52.074;5.126;2022-09-12T08:25:59;17.08;;;14.07;;
20511;SDS011;10414;52.074;5.126;2022-09-12T08:28:28;17.67;;;14.13;;
20511;SDS011;10414;52.074;5.126;2022-09-12T08:30:58;15.73;;;12.65;;
20511;SDS011;10414;52.074;5.126;2022-09-12T08:33:26;20.02;;;16.20;;
20511;SDS011;10414;52.074;5.126;2022-09-12T08:36:01;18.23;;;15.57;;
20511;SDS011;10414;52.074;5.126;2022-09-12T08:38:29;16.75;;;13.50;;
20511;SDS011;10414;52.074;5.126;2022-09-12T08:40:59;16.00;;;13.85;;
20511;SDS011;10414;52.074;5.126;2022-09-12T08:43:39;17.95;;;14.15;;
20511;SDS011;10414;52.074;5.126;2022-09-12T08:46:19;18.58;;;13.45;;
20511;SDS011;10414;52.074;5.126;2022-09-12T08:48:49;15.38;;;11.23;;
20511;SDS011;10414;52.074;5.126;2022-09-12T08:51:17;20.15;;;14.48;;
20511;SDS011;10414;52.074;5.126;2022-09-12T08:53:46;14.68;;;12.07;;
20511;SDS011;10414;52.074;5.126;2022-09-12T08:56:20;14.93;;;12.13;;
20511;SDS011;10414;52.074;5.126;2022-09-12T08:58:47;19.65;;;15.65;;
20511;SDS011;10414;52.074;5.126;2022-09-12T09:01:16;17.42;;;14.80;;
20511;SDS011;10414;52.074;5.126;2022-09-12T09:03:58;15.80;;;12.23;;
20511;SDS011;10414;52.074;5.126;2022-09-12T09:06:53;20.00;;;14.18;;
20511;SDS011;10414;52.074;5.126;2022-09-12T09:09:34;16.75;;;12.00;;
20511;SDS011;10414;52.074;5.126;2022-09-12T09:12:11;15.93;;;12.77;;
20511;SDS011;10414;52.074;5.126;2022-09-12T09:14:49;17.90;;;13.88;;
20511;SDS011;10414;52.074;5.126;2022-09-12T09:17:27;17.77;;;12.65;;
20511;SDS011;10414;52.074;5.126;2022-09-12T09:20:01;16.45;;;13.95;;
20511;SDS011;10414;52.074;5.126;2022-09-12T09:22:36;15.77;;;13.40;;
20511;SDS011;10414;52.074;5.126;2022-09-12T09:25:10;16.95;;;12.63;;
20511;SDS011;10414;52.074;5.126;2022-09-12T09:27:46;15.13;;;11.75;;
20511;SDS011;10414;52.074;5.126;2022-09-12T09:30:17;18.10;;;12.73;;
20511;SDS011;10414;52.074;5.126;2022-09-12T09:32:48;16.15;;;12.40;;
20511;SDS011;10414;52.074;5.126;2022-09-12T09:35:18;16.48;;;12.00;;
20511;SDS011;10414;52.074;5.126;2022-09-12T09:37:59;13.40;;;11.18;;
20511;SDS011;10414;52.074;5.126;2022-09-12T09:40:33;13.63;;;10.27;;
20511;SDS011;10414;52.074;5.126;2022-09-12T09:43:13;15.25;;;10.75;;
20511;SDS011;10414;52.074;5.126;2022-09-12T09:45:46;14.38;;;9.50;;
20511;SDS011;10414;52.074;5.126;2022-09-12T09:48:15;14.90;;;10.20;;
20511;SDS011;10414;52.074;5.126;2022-09-12T09:50:45;12.45;;;8.90;;
20511;SDS011;10414;52.074;5.126;2022-09-12T09:53:18;13.85;;;9.15;;
20511;SDS011;10414;52.074;5.126;2022-09-12T09:55:53;11.88;;;8.68;;
20511;SDS011;10414;52.074;5.126;2022-09-12T09:58:33;13.23;;;8.40;;
20511;SDS011;10414;52.074;5.126;2022-09-12T10:01:01;12.15;;;7.55;;
20511;SDS011;10414;52.074;5.126;2022-09-12T10:03:31;11.25;;;8.75;;
20511;SDS011;10414;52.074;5.126;2022-09-12T10:06:00;10.13;;;7.45;;
20511;SDS011;10414;52.074;5.126;2022-09-12T10:08:31;11.45;;;8.15;;
20511;SDS011;10414;52.074;5.126;2022-09-12T10:11:01;12.57;;;8.95;;
20511;SDS011;10414;52.074;5.126;2022-09-12T10:13:35;12.30;;;9.45;;
20511;SDS011;10414;52.074;5.126;2022-09-12T10:16:05;13.98;;;8.43;;
20511;SDS011;10414;52.074;5.126;2022-09-12T10:18:43;13.05;;;9.30;;
20511;SDS011;10414;52.074;5.126;2022-09-12T10:21:14;12.25;;;7.32;;
20511;SDS011;10414;52.074;5.126;2022-09-12T10:23:46;9.43;;;7.57;;
20511;SDS011;10414;52.074;5.126;2022-09-12T10:26:17;11.10;;;9.00;;
20511;SDS011;10414;52.074;5.126;2022-09-12T10:28:48;13.00;;;8.73;;
20511;SDS011;10414;52.074;5.126;2022-09-12T10:31:22;10.43;;;7.28;;
20511;SDS011;10414;52.074;5.126;2022-09-12T10:33:53;11.50;;;6.97;;
20511;SDS011;10414;52.074;5.126;2022-09-12T10:36:22;10.35;;;7.30;;
20511;SDS011;10414;52.074;5.126;2022-09-12T10:38:51;10.60;;;6.60;;
20511;SDS011;10414;52.074;5.126;2022-09-12T10:41:21;11.07;;;6.95;;
20511;SDS011;10414;52.074;5.126;2022-09-12T10:43:50;10.23;;;7.90;;
20511;SDS011;10414;52.074;5.126;2022-09-12T10:46:21;9.98;;;7.38;;
20511;SDS011;10414;52.074;5.126;2022-09-12T10:51:39;9.57;;;6.53;;
20511;SDS011;10414;52.074;5.126;2022-09-12T10:54:07;9.95;;;7.13;;
20511;SDS011;10414;52.074;5.126;2022-09-12T10:56:38;9.35;;;6.88;;
20511;SDS011;10414;52.074;5.126;2022-09-12T10:59:17;9.90;;;6.43;;
20511;SDS011;10414;52.074;5.126;2022-09-12T11:01:52;8.70;;;6.35;;
20511;SDS011;10414;52.074;5.126;2022-09-12T11:04:30;10.10;;;5.47;;
20511;SDS011;10414;52.074;5.126;2022-09-12T11:10:10;8.73;;;5.40;;
20511;SDS011;10414;52.074;5.126;2022-09-12T11:12:47;6.03;;;4.43;;
20511;SDS011;10414;52.074;5.126;2022-09-12T11:15:26;7.03;;;4.47;;
20511;SDS011;10414;52.074;5.126;2022-09-12T11:18:06;7.60;;;5.07;;
20511;SDS011;10414;52.074;5.126;2022-09-12T11:20:45;9.45;;;4.95;;
20511;SDS011;10414;52.074;5.126;2022-09-12T11:26:25;6.65;;;4.90;;
20511;SDS011;10414;52.074;5.126;2022-09-12T11:29:04;7.38;;;5.07;;
20511;SDS011;10414;52.074;5.126;2022-09-12T11:31:45;7.72;;;5.50;;
20511;SDS011;10414;52.074;5.126;2022-09-12T11:34:26;8.27;;;4.57;;
20511;SDS011;10414;52.074;5.126;2022-09-12T11:37:05;8.32;;;4.40;;
20511;SDS011;10414;52.074;5.126;2022-09-12T11:39:46;6.47;;;4.32;;
20511;SDS011;10414;52.074;5.126;2022-09-12T11:42:17;7.32;;;3.78;;
20511;SDS011;10414;52.074;5.126;2022-09-12T11:44:50;8.18;;;5.93;;
20511;SDS011;10414;52.074;5.126;2022-09-12T11:47:24;7.53;;;4.50;;
20511;SDS011;10414;52.074;5.126;2022-09-12T11:49:55;10.52;;;4.82;;
20511;SDS011;10414;52.074;5.126;2022-09-12T11:52:23;9.43;;;5.78;;
20511;SDS011;10414;52.074;5.126;2022-09-12T11:54:55;8.43;;;5.47;;
20511;SDS011;10414;52.074;5.126;2022-09-12T11:57:27;9.57;;;5.97;;
20511;SDS011;10414;52.074;5.126;2022-09-12T12:00:03;9.05;;;5.85;;
20511;SDS011;10414;52.074;5.126;2022-09-12T12:02:34;9.18;;;4.95;;
20511;SDS011;10414;52.074;5.126;2022-09-12T12:05:14;8.02;;;4.88;;
20511;SDS011;10414;52.074;5.126;2022-09-12T12:07:48;7.13;;;4.93;;
20511;SDS011;10414;52.074;5.126;2022-09-12T12:10:22;7.22;;;4.50;;
20511;SDS011;10414;52.074;5.126;2022-09-12T12:12:51;7.00;;;4.57;;
20511;SDS011;10414;52.074;5.126;2022-09-12T12:15:20;6.22;;;3.97;;
20511;SDS011;10414;52.074;5.126;2022-09-12T12:18:00;8.90;;;4.63;;
20511;SDS011;10414;52.074;5.126;2022-09-12T12:20:32;8.15;;;4.70;;
20511;SDS011;10414;52.074;5.126;2022-09-12T12:23:00;8.25;;;4.93;;
20511;SDS011;10414;52.074;5.126;2022-09-12T12:25:40;7.25;;;5.22;;
20511;SDS011;10414;52.074;5.126;2022-09-12T12:31:22;6.25;;;3.88;;
20511;SDS011;10414;52.074;5.126;2022-09-12T12:33:54;7.13;;;4.10;;
20511;SDS011;10414;52.074;5.126;2022-09-12T12:36:28;7.13;;;4.40;;
20511;SDS011;10414;52.074;5.126;2022-09-12T12:48:46;7.03;;;3.92;;
20511;SDS011;10414;52.074;5.126;2022-09-12T12:51:27;6.68;;;3.38;;
20511;SDS011;10414;52.074;5.126;2022-09-12T12:53:57;6.07;;;3.30;;
20511;SDS011;10414;52.074;5.126;2022-09-12T12:56:36;8.52;;;3.60;;
20511;SDS011;10414;52.074;5.126;2022-09-12T12:59:12;5.55;;;3.38;;
20511;SDS011;10414;52.074;5.126;2022-09-12T13:01:43;7.63;;;3.30;;
20511;SDS011;10414;52.074;5.126;2022-09-12T13:04:14;5.75;;;2.97;;
20511;SDS011;10414;52.074;5.126;2022-09-12T13:06:44;5.68;;;3.55;;
20511;SDS011;10414;52.074;5.126;2022-09-12T13:09:21;6.25;;;3.50;;
20511;SDS011;10414;52.074;5.126;2022-09-12T13:11:55;7.10;;;3.22;;
20511;SDS011;10414;52.074;5.126;2022-09-12T13:17:17;5.32;;;3.30;;
20511;SDS011;10414;52.074;5.126;2022-09-12T13:19:53;5.28;;;2.80;;
20511;SDS011;10414;52.074;5.126;2022-09-12T13:22:39;5.75;;;2.95;;
20511;SDS011;10414;52.074;5.126;2022-09-12T13:25:17;5.97;;;2.90;;
20511;SDS011;10414;52.074;5.126;2022-09-12T13:27:55;6.25;;;3.03;;
20511;SDS011;10414;52.074;5.126;2022-09-12T13:30:30;5.75;;;2.95;;
20511;SDS011;10414;52.074;5.126;2022-09-12T13:33:04;7.03;;;3.20;;
20511;SDS011;10414;52.074;5.126;2022-09-12T13:35:41;6.05;;;3.40;;
20511;SDS011;10414;52.074;5.126;2022-09-12T13:38:17;5.93;;;3.30;;
20511;SDS011;10414;52.074;5.126;2022-09-12T13:40:56;5.93;;;3.25;;
20511;SDS011;10414;52.074;5.126;2022-09-12T13:43:38;6.30;;;3.45;;
20511;SDS011;10414;52.074;5.126;2022-09-12T13:46:08;5.20;;;3.50;;
20511;SDS011;10414;52.074;5.126;2022-09-12T13:48:41;7.35;;;3.13;;
20511;SDS011;10414;52.074;5.126;2022-09-12T13:51:17;5.70;;;3.40;;
20511;SDS011;10414;52.074;5.126;2022-09-12T13:53:47;6.85;;;3.10;;
20511;SDS011;10414;52.074;5.126;2022-09-12T13:56:15;6.32;;;3.30;;
20511;SDS011;10414;52.074;5.126;2022-09-12T13:58:49;6.38;;;3.25;;
20511;SDS011;10414;52.074;5.126;2022-09-12T14:01:18;7.63;;;3.22;;
20511;SDS011;10414;52.074;5.126;2022-09-12T14:03:47;7.32;;;3.50;;
20511;SDS011;10414;52.074;5.126;2022-09-12T14:06:36;6.88;;;3.60;;
20511;SDS011;10414;52.074;5.126;2022-09-12T14:09:13;7.00;;;3.47;;
20511;SDS011;10414;52.074;5.126;2022-09-12T14:11:41;5.03;;;3.40;;
20511;SDS011;10414;52.074;5.126;2022-09-12T14:17:00;5.88;;;3.05;;
20511;SDS011;10414;52.074;5.126;2022-09-12T14:19:39;5.30;;;3.40;;
20511;SDS011;10414;52.074;5.126;2022-09-12T14:22:08;5.43;;;3.25;;
20511;SDS011;10414;52.074;5.126;2022-09-12T14:24:42;5.07;;;3.30;;
20511;SDS011;10414;52.074;5.126;2022-09-12T14:27:15;5.22;;;3.25;;
20511;SDS011;10414;52.074;5.126;2022-09-12T14:29:43;7.40;;;2.85;;
20511;SDS011;10414;52.074;5.126;2022-09-12T14:32:22;5.35;;;2.80;;
20511;SDS011;10414;52.074;5.126;2022-09-12T14:37:49;4.50;;;2.67;;
20511;SDS011;10414;52.074;5.126;2022-09-12T14:40:17;4.45;;;2.30;;
20511;SDS011;10414;52.074;5.126;2022-09-12T14:42:46;4.00;;;2.43;;
20511;SDS011;10414;52.074;5.126;2022-09-12T14:45:16;4.05;;;2.42;;
20511;SDS011;10414;52.074;5.126;2022-09-12T14:47:49;5.70;;;2.50;;
20511;SDS011;10414;52.074;5.126;2022-09-12T14:50:18;5.23;;;3.00;;
20511;SDS011;10414;52.074;5.126;2022-09-12T14:53:02;4.72;;;2.35;;
20511;SDS011;10414;52.074;5.126;2022-09-12T14:55:31;4.00;;;2.50;;
20511;SDS011;10414;52.074;5.126;2022-09-12T14:58:06;4.72;;;2.55;;
20511;SDS011;10414;52.074;5.126;2022-09-12T15:03:21;5.35;;;2.90;;
20511;SDS011;10414;52.074;5.126;2022-09-12T15:05:50;5.53;;;2.47;;
20511;SDS011;10414;52.074;5.126;2022-09-12T15:08:18;4.10;;;2.30;;
20511;SDS011;10414;52.074;5.126;2022-09-12T15:10:46;4.40;;;2.55;;
20511;SDS011;10414;52.074;5.126;2022-09-12T15:13:15;4.28;;;2.60;;
20511;SDS011;10414;52.074;5.126;2022-09-12T15:15:44;5.78;;;2.45;;
20511;SDS011;10414;52.074;5.126;2022-09-12T15:18:12;5.35;;;2.70;;
20511;SDS011;10414;52.074;5.126;2022-09-12T15:20:41;5.88;;;2.50;;
20511;SDS011;10414;52.074;5.126;2022-09-12T15:23:13;7.20;;;2.60;;
20511;SDS011;10414;52.074;5.126;2022-09-12T15:25:45;5.57;;;2.53;;
20511;SDS011;10414;52.074;5.126;2022-09-12T15:28:14;5.55;;;2.60;;
20511;SDS011;10414;52.074;5.126;2022-09-12T15:30:43;6.45;;;2.60;;
20511;SDS011;10414;52.074;5.126;2022-09-12T15:33:11;5.88;;;2.80;;
20511;SDS011;10414;52.074;5.126;2022-09-12T15:35:38;4.85;;;2.97;;
20511;SDS011;10414;52.074;5.126;2022-09-12T15:38:05;5.28;;;2.80;;